createdAt,value
2022-10-11T00:13:19.624Z,17.70
2022-10-11T00:28:24.063Z,17.50
2022-10-11T00:43:33.841Z,17.60
2022-10-11T00:58:39.424Z,17.60
2022-10-11T01:13:53.271Z,17.30
2022-10-11T01:29:09.363Z,17.50
2022-10-11T01:44:14.797Z,17.50
2022-10-11T01:59:35.293Z,17.30
2022-10-11T02:14:43.146Z,17.40
2022-10-11T02:29:50.503Z,17.40
2022-10-11T02:45:00.833Z,17.30
2022-10-11T03:00:06.494Z,17.40
2022-10-11T03:15:11.907Z,17.10
2022-10-11T03:30:18.432Z,17.10
2022-10-11T03:45:22.983Z,17.10
2022-10-11T04:00:28.104Z,17.00
2022-10-11T04:15:32.530Z,17.00
2022-10-11T04:30:37.223Z,16.80
2022-10-11T04:45:41.597Z,16.90
2022-10-11T05:00:45.998Z,16.80
2022-10-11T05:15:50.255Z,16.60
2022-10-11T05:30:55.060Z,16.70
2022-10-11T05:45:59.745Z,16.60
2022-10-11T06:01:04.391Z,16.50
2022-10-11T06:16:09.415Z,16.20
2022-10-11T06:31:14.059Z,16.50
2022-10-11T06:46:19.311Z,16.20
2022-10-11T07:01:24.634Z,16.40
2022-10-11T07:16:29.629Z,16.30
2022-10-11T07:31:34.722Z,16.10
2022-10-11T07:46:39.109Z,16.40
2022-10-11T08:01:43.522Z,15.70
2022-10-11T08:16:48.585Z,16.30
2022-10-11T08:31:52.985Z,16.20
2022-10-11T08:47:00.980Z,16.40
2022-10-11T09:02:20.462Z,16.40
2022-10-11T09:17:37.155Z,16.60
2022-10-11T09:32:46.563Z,16.70
2022-10-11T09:47:53.352Z,16.80
2022-10-11T10:03:00.037Z,16.90
2022-10-11T10:18:06.497Z,17.70
2022-10-11T10:33:12.545Z,18.30
2022-10-11T10:48:24.741Z,19.10
2022-10-11T11:03:37.379Z,19.30
2022-10-11T11:18:50.120Z,19.60
2022-10-11T11:34:03.476Z,20.00
2022-10-11T11:49:15.183Z,20.20
2022-10-11T12:04:24.009Z,20.00
2022-10-11T12:19:28.510Z,20.00
2022-10-11T12:34:37.850Z,20.10
2022-10-11T12:49:59.295Z,20.30
2022-10-11T13:05:09.114Z,20.60
2022-10-11T13:20:20.405Z,20.70
2022-10-11T13:35:31.566Z,20.80
2022-10-11T13:51:09.917Z,21.80
2022-10-11T14:06:16.320Z,22.60
2022-10-11T14:21:33.180Z,24.00
2022-10-11T14:36:47.793Z,25.40
2022-10-11T14:51:54.229Z,26.30
2022-10-11T15:06:59.122Z,26.60
2022-10-11T15:22:06.023Z,27.10
2022-10-11T16:10:42.701Z,23.60
2022-10-11T16:25:47.712Z,22.40
2022-10-11T16:40:52.804Z,22.00
2022-10-11T16:56:00.338Z,21.60
2022-10-11T17:11:06.285Z,21.60
2022-10-11T17:26:18.913Z,21.20
2022-10-11T17:41:28.147Z,20.90
2022-10-11T17:56:45.272Z,20.70
2022-10-11T18:12:04.063Z,20.40
2022-10-11T18:27:09.845Z,20.50
2022-10-11T18:42:23.205Z,20.30
2022-10-11T18:57:27.896Z,20.00
2022-10-11T19:12:50.631Z,20.00
2022-10-11T19:30:08.569Z,19.80
2022-10-11T20:00:37.048Z,19.30
2022-10-11T20:15:41.506Z,19.00
2022-10-11T20:30:45.869Z,19.10
2022-10-11T20:46:02.256Z,18.80
2022-10-11T21:01:12.995Z,18.70
2022-10-11T21:16:18.050Z,18.80
2022-10-11T21:31:23.864Z,18.60
2022-10-11T21:46:54.187Z,18.50
2022-10-11T22:01:58.137Z,18.40
2022-10-11T22:17:05.326Z,18.40
2022-10-11T22:32:11.173Z,18.30
2022-10-11T22:47:15.515Z,18.20
2022-10-11T23:02:19.816Z,18.00
2022-10-11T23:17:24.239Z,18.00
2022-10-11T23:32:28.644Z,17.80
2022-10-11T23:47:33.013Z,17.80
